Terminal Aerodrome Forecast
Issued by NWS Billings, MT

Home | Current Version | Previous Version | Text Only | Print | Product List | Glossary On
Versions: 1 2 3 4 5 6 7 8 9 10 11 12 13 14 15 16 17
000
FTUS45 KBYZ 142339
TAFMLS
TAF
KMLS 142339Z 1500/1524 34010KT P6SM VCSH SCT050 OVC070
     FM150400 34010KT P6SM VCSH SCT015 BKN030
     FM150600 34011KT 1 1/2SM -SN SCT007 OVC015
     FM151800 32009KT P6SM VCSH SCT007 BKN025=

USA.gov is the U.S. government's official web portal to all federal, state and local government web resources and services.